createdAt,value
2019-05-23T00:00:41.188Z,93.10
2019-05-23T00:03:33.999Z,93.40
2019-05-23T00:06:29.247Z,93.50
2019-05-23T00:09:19.355Z,93.90
2019-05-23T00:11:57.766Z,94.00
2019-05-23T00:14:52.087Z,94.20
2019-05-23T00:17:24.839Z,94.40
2019-05-23T00:19:57.602Z,94.70
2019-05-23T00:22:29.763Z,94.80
2019-05-23T00:25:02.169Z,94.90
2019-05-23T00:27:34.626Z,95.00
2019-05-23T00:30:13.368Z,95.00
2019-05-23T00:32:48.181Z,95.00
2019-05-23T00:35:19.870Z,94.90
2019-05-23T00:37:52.026Z,94.90
2019-05-23T00:40:24.151Z,94.90
2019-05-23T00:42:56.622Z,94.90
2019-05-23T00:45:27.708Z,95.00
2019-05-23T00:48:00.733Z,94.90
2019-05-23T00:50:32.935Z,94.80
2019-05-23T00:53:04.218Z,94.70
2019-05-23T00:55:36.593Z,94.40
2019-05-23T00:58:08.173Z,93.90
2019-05-23T01:00:40.151Z,93.60
2019-05-23T01:03:11.944Z,93.10
2019-05-23T01:05:43.708Z,93.00
2019-05-23T01:08:15.790Z,93.00
2019-05-23T01:10:48.405Z,92.90
2019-05-23T01:13:20.903Z,92.90
2019-05-23T01:15:53.710Z,92.90
2019-05-23T01:18:25.608Z,92.90
2019-05-23T01:21:01.492Z,92.90
2019-05-23T01:23:34.370Z,93.10
2019-05-23T01:26:05.838Z,93.00
2019-05-23T01:28:37.201Z,93.20
2019-05-23T01:31:09.742Z,93.20
2019-05-23T01:33:40.891Z,93.30
2019-05-23T01:36:12.363Z,92.80
2019-05-23T01:38:44.406Z,92.80
2019-05-23T01:41:17.505Z,92.70
2019-05-23T01:43:49.949Z,92.70
2019-05-23T01:46:21.537Z,92.90
2019-05-23T01:48:53.606Z,92.80
2019-05-23T01:51:25.236Z,92.80
2019-05-23T01:53:57.292Z,92.80
2019-05-23T01:56:29.012Z,92.90
2019-05-23T01:59:00.717Z,93.00
2019-05-23T02:01:32.266Z,93.20
2019-05-23T02:04:03.553Z,93.40
2019-05-23T02:06:34.980Z,93.60
2019-05-23T02:09:09.794Z,93.70
2019-05-23T02:11:41.627Z,93.80
2019-05-23T02:14:13.546Z,93.70
2019-05-23T02:16:46.660Z,93.50
2019-05-23T02:19:20.060Z,93.30
2019-05-23T02:21:52.100Z,93.20
2019-05-23T02:24:24.752Z,92.80
2019-05-23T02:26:56.505Z,92.80
2019-05-23T02:29:29.957Z,92.60
2019-05-23T02:32:00.865Z,92.10
2019-05-23T02:34:33.057Z,91.90
2019-05-23T02:37:05.661Z,91.80
2019-05-23T02:39:51.327Z,91.80
2019-05-23T02:42:23.933Z,91.80
2019-05-23T02:44:57.207Z,91.70
2019-05-23T02:47:30.320Z,91.90
2019-05-23T02:50:03.244Z,91.90
2019-05-23T02:52:44.461Z,91.70
2019-05-23T02:55:19.134Z,91.60
2019-05-23T02:57:52.045Z,91.80
2019-05-23T03:00:52.375Z,91.90
2019-05-23T03:03:11.554Z,92.00
2019-05-23T03:05:44.886Z,92.00
2019-05-23T03:08:17.600Z,92.10
2019-05-23T03:10:58.529Z,92.10
2019-05-23T03:13:32.421Z,92.00
2019-05-23T03:16:04.088Z,92.00
2019-05-23T03:18:38.250Z,92.10
2019-05-23T03:21:09.753Z,92.30
2019-05-23T03:23:41.634Z,92.40
2019-05-23T03:26:33.887Z,92.50
2019-05-23T03:29:08.861Z,92.50
2019-05-23T03:31:53.935Z,92.50
2019-05-23T03:34:26.709Z,92.40
2019-05-23T03:36:57.830Z,92.50
2019-05-23T03:39:29.986Z,92.60
2019-05-23T03:42:01.192Z,92.60
2019-05-23T03:44:32.113Z,92.60
2019-05-23T03:47:04.211Z,92.50
2019-05-23T03:49:37.064Z,92.40
2019-05-23T03:52:10.798Z,92.30
2019-05-23T03:54:43.179Z,92.40
2019-05-23T03:57:15.526Z,92.30
2019-05-23T03:59:47.647Z,92.00
2019-05-23T04:02:20.826Z,91.80
2019-05-23T04:04:54.283Z,91.60
2019-05-23T04:07:25.367Z,91.70
2019-05-23T04:09:58.660Z,91.80
2019-05-23T04:12:30.336Z,92.00
2019-05-23T04:15:01.479Z,91.80
2019-05-23T04:23:44.035Z,91.80
2019-05-23T04:26:15.337Z,91.70
2019-05-23T04:28:46.816Z,91.70
2019-05-23T04:31:18.693Z,91.60
2019-05-23T04:33:49.853Z,91.70
2019-05-23T04:36:21.752Z,91.70
2019-05-23T04:38:52.982Z,91.60
2019-05-23T04:41:24.029Z,91.60
2019-05-23T04:43:55.180Z,91.60
2019-05-23T04:46:26.055Z,91.70
2019-05-23T04:48:57.615Z,91.60
2019-05-23T04:51:28.739Z,91.60
2019-05-23T04:54:00.090Z,91.60
2019-05-23T04:56:31.219Z,91.50
2019-05-23T04:59:04.657Z,91.50
2019-05-23T05:01:35.903Z,91.60
2019-05-23T05:04:07.458Z,91.50
2019-05-23T05:06:39.296Z,91.30
2019-05-23T05:09:25.375Z,91.00
2019-05-23T05:11:56.406Z,91.10
2019-05-23T05:14:29.795Z,91.00
2019-05-23T05:17:00.991Z,90.80
2019-05-23T11:18:35.785Z,55.40
2019-05-23T11:21:06.763Z,54.80
2019-05-23T11:23:45.011Z,54.70
2019-05-23T11:26:15.649Z,54.70
2019-05-23T11:28:46.807Z,53.10
2019-05-23T11:31:18.603Z,52.70
2019-05-23T11:33:50.498Z,53.10
2019-05-23T11:36:34.845Z,54.30
2019-05-23T11:38:53.775Z,55.10
2019-05-23T11:41:24.501Z,55.10
2019-05-23T11:43:56.405Z,54.60
2019-05-23T11:46:29.183Z,54.80
2019-05-23T11:49:02.715Z,55.20
2019-05-23T11:51:34.742Z,55.10
2019-05-23T11:54:08.824Z,54.90
2019-05-23T11:56:38.878Z,56.10
2019-05-23T11:59:09.817Z,56.80
2019-05-23T12:01:42.302Z,54.90
2019-05-23T12:04:14.926Z,54.70
2019-05-23T12:06:55.297Z,54.90
2019-05-23T12:09:19.964Z,54.30
2019-05-23T12:11:50.498Z,54.70
2019-05-23T12:14:21.502Z,53.80
2019-05-23T12:16:52.453Z,55.00
2019-05-23T12:19:23.416Z,55.90
2019-05-23T12:21:55.247Z,55.80
2019-05-23T12:24:27.224Z,55.50
2019-05-23T12:26:57.952Z,56.20
2019-05-23T12:29:28.732Z,57.80
2019-05-23T12:31:59.436Z,57.80
2019-05-23T12:34:31.283Z,56.80
2019-05-23T12:37:18.342Z,56.70
2019-05-23T12:39:34.200Z,56.70
2019-05-23T12:42:04.939Z,56.60
2019-05-23T12:44:37.774Z,56.70
2019-05-23T12:47:10.072Z,56.50
2019-05-23T12:49:45.193Z,55.80
2019-05-23T12:52:15.945Z,53.90
2019-05-23T12:54:46.880Z,54.30
2019-05-23T12:57:18.000Z,53.80
2019-05-23T12:59:49.612Z,55.40
2019-05-23T13:02:22.101Z,55.20
2019-05-23T13:04:54.237Z,55.40
2019-05-23T13:07:35.547Z,55.20
2019-05-23T13:09:57.253Z,55.60
2019-05-23T13:12:28.206Z,55.00
2019-05-23T13:15:01.235Z,55.30
2019-05-23T13:17:32.539Z,54.60
2019-05-23T13:20:03.805Z,55.00
2019-05-23T13:22:34.515Z,54.50
2019-05-23T13:25:08.619Z,54.40
2019-05-23T13:27:39.245Z,53.30
2019-05-23T13:30:10.076Z,54.80
2019-05-23T13:32:40.601Z,56.90
2019-05-23T13:35:11.538Z,57.80
2019-05-23T13:37:52.862Z,55.60
2019-05-23T13:40:15.730Z,55.00
2019-05-23T13:42:46.752Z,56.20
2019-05-23T13:45:17.658Z,56.50
2019-05-23T13:47:48.985Z,54.70
2019-05-23T13:50:20.690Z,54.80
2019-05-23T13:52:51.991Z,55.20
2019-05-23T13:55:22.824Z,57.20
2019-05-23T13:57:53.527Z,58.10
2019-05-23T14:00:25.253Z,58.10
2019-05-23T14:02:55.869Z,58.20
2019-05-23T14:05:26.555Z,58.10
2019-05-23T14:08:11.515Z,57.40
2019-05-23T14:10:29.936Z,57.00
2019-05-23T14:13:00.663Z,56.50
2019-05-23T14:15:38.637Z,56.80
2019-05-23T14:18:09.497Z,56.70
2019-05-23T14:20:40.521Z,55.60
2019-05-23T14:23:18.584Z,51.60
2019-05-23T14:25:50.941Z,51.80
2019-05-23T14:28:21.830Z,55.60
2019-05-23T14:30:54.421Z,57.00
2019-05-23T14:33:26.933Z,55.90
2019-05-23T14:36:17.206Z,55.20
2019-05-23T14:38:48.341Z,51.60
2019-05-23T14:41:19.386Z,51.10
2019-05-23T14:43:52.806Z,50.40
2019-05-23T14:46:25.200Z,50.10
2019-05-23T14:48:57.616Z,50.00
2019-05-23T14:51:41.868Z,48.90
2019-05-23T14:54:31.413Z,49.30
2019-05-23T14:57:02.946Z,49.20
2019-05-23T14:59:33.542Z,50.10
2019-05-23T15:02:06.070Z,52.00
2019-05-23T15:04:37.789Z,52.20
2019-05-23T15:07:08.728Z,54.00
2019-05-23T15:09:39.344Z,54.50
2019-05-23T15:12:11.087Z,54.30
2019-05-23T15:14:42.744Z,55.30
2019-05-23T15:17:13.608Z,55.30
2019-05-23T15:19:45.262Z,54.70
2019-05-23T15:22:16.282Z,55.50
2019-05-23T15:24:47.925Z,55.60
2019-05-23T15:27:18.863Z,55.40
2019-05-23T15:29:50.506Z,55.80
2019-05-23T15:32:21.528Z,56.40
2019-05-23T15:34:54.137Z,55.60
2019-05-23T15:37:25.150Z,56.20
2019-05-23T15:39:56.239Z,56.00
2019-05-23T15:42:27.247Z,56.40
2019-05-23T15:44:58.917Z,56.90
2019-05-23T15:47:33.612Z,59.70
2019-05-23T15:50:11.133Z,56.50
2019-05-23T15:52:57.871Z,56.00
2019-05-23T15:55:34.168Z,56.50
2019-05-23T15:58:12.141Z,56.70
2019-05-23T16:00:47.743Z,57.60
2019-05-23T16:03:35.984Z,55.80
2019-05-23T16:06:08.262Z,55.30
2019-05-23T16:08:39.250Z,55.60
2019-05-23T16:11:10.012Z,56.30
2019-05-23T16:13:40.826Z,55.90
2019-05-23T16:16:11.462Z,55.80
2019-05-23T16:18:42.405Z,54.90
2019-05-23T16:21:13.938Z,55.40
2019-05-23T16:23:44.670Z,56.20
2019-05-23T16:26:15.219Z,56.30
2019-05-23T16:28:46.139Z,55.70
2019-05-23T16:31:16.952Z,55.50
2019-05-23T16:33:48.819Z,56.00
2019-05-23T16:36:19.518Z,55.80
2019-05-23T16:38:50.253Z,55.90
2019-05-23T16:41:21.197Z,55.10
2019-05-23T16:43:53.249Z,54.90
2019-05-23T16:46:24.122Z,55.40
2019-05-23T16:48:54.899Z,55.50
2019-05-23T16:51:25.653Z,56.00
2019-05-23T16:53:57.847Z,55.80
2019-05-23T16:56:33.297Z,54.80
2019-05-23T16:59:08.872Z,55.20
2019-05-23T17:01:54.865Z,55.80
2019-05-23T17:04:18.809Z,55.90
2019-05-23T17:06:51.379Z,56.30
2019-05-23T17:09:35.892Z,56.10
2019-05-23T17:12:24.446Z,56.20
2019-05-23T17:15:00.811Z,57.00
2019-05-23T17:18:01.529Z,57.40
2019-05-23T17:20:23.061Z,58.10
2019-05-23T17:23:11.608Z,58.20
2019-05-23T17:25:50.020Z,58.40
2019-05-23T17:28:34.523Z,58.90
2019-05-23T17:31:12.537Z,60.00
2019-05-23T17:33:45.004Z,60.40
2019-05-23T17:36:15.918Z,60.80
2019-05-23T17:38:46.755Z,61.40
2019-05-23T17:41:17.778Z,61.70
2019-05-23T17:43:49.595Z,61.70
2019-05-23T17:46:21.016Z,62.30
2019-05-23T17:48:51.652Z,62.30
2019-05-23T17:51:22.873Z,62.60
2019-05-23T17:53:53.538Z,62.50
2019-05-23T17:56:24.794Z,62.30
2019-05-23T17:58:55.798Z,62.40
2019-05-23T18:01:27.242Z,62.80
2019-05-23T18:03:59.146Z,63.30
2019-05-23T18:06:29.921Z,63.60
2019-05-23T18:09:00.740Z,63.90
2019-05-23T18:11:31.891Z,64.10
2019-05-23T18:14:04.145Z,64.30
2019-05-23T18:16:35.987Z,64.60
2019-05-23T18:19:08.031Z,64.70
2019-05-23T18:21:38.860Z,65.00
2019-05-23T18:27:09.458Z,65.30
2019-05-23T18:29:40.309Z,65.30
2019-05-23T18:32:12.856Z,65.30
2019-05-23T18:34:43.623Z,65.40
2019-05-23T18:37:14.379Z,65.00
2019-05-23T18:39:45.441Z,65.00
2019-05-23T18:42:17.076Z,64.80
2019-05-23T18:44:47.900Z,65.20
2019-05-23T18:47:20.444Z,65.60
2019-05-23T18:49:51.476Z,65.60
2019-05-23T18:52:22.418Z,65.20
2019-05-23T18:54:53.397Z,65.50
2019-05-23T18:57:24.413Z,65.70
2019-05-23T18:59:55.312Z,64.90
2019-05-23T19:02:26.611Z,65.40
2019-05-23T19:04:58.375Z,66.30
2019-05-23T19:07:29.111Z,66.50
2019-05-23T19:10:00.749Z,67.70
2019-05-23T19:12:32.379Z,68.10
2019-05-23T19:15:03.013Z,68.40
2019-05-23T19:17:33.952Z,68.90
2019-05-23T19:20:08.974Z,69.40
2019-05-23T19:22:39.719Z,69.60
2019-05-23T19:25:12.158Z,70.10
2019-05-23T19:27:42.984Z,70.90
2019-05-23T19:30:14.247Z,71.40
2019-05-23T19:32:45.186Z,71.80
2019-05-23T19:35:16.036Z,72.40
2019-05-23T19:37:47.281Z,72.80
2019-05-23T19:40:18.276Z,73.20
2019-05-23T19:42:48.987Z,73.00
2019-05-23T19:45:19.818Z,72.70
2019-05-23T19:47:50.660Z,72.20
2019-05-23T19:50:21.889Z,72.10
2019-05-23T19:52:52.946Z,71.90
2019-05-23T19:55:23.637Z,72.00
2019-05-23T19:57:55.880Z,72.10
2019-05-23T20:00:28.579Z,72.10
2019-05-23T20:03:03.726Z,72.30
2019-05-23T20:05:34.120Z,72.70
2019-05-23T20:08:05.662Z,74.10
2019-05-23T20:10:36.817Z,73.90
2019-05-23T20:13:07.740Z,74.00
2019-05-23T20:15:38.416Z,74.00
2019-05-23T20:18:10.434Z,74.80
2019-05-23T20:20:41.248Z,75.50
2019-05-23T20:23:15.809Z,75.50
2019-05-23T20:25:46.472Z,75.70
2019-05-23T20:28:17.359Z,76.10
2019-05-23T20:30:52.635Z,76.20
2019-05-23T20:33:23.722Z,76.40
2019-05-23T20:35:55.502Z,76.50
2019-05-23T20:38:26.864Z,76.70
2019-05-23T20:40:57.613Z,77.30
2019-05-23T20:43:28.651Z,77.60
2019-05-23T20:45:59.421Z,77.90
2019-05-23T20:48:30.870Z,78.60
2019-05-23T20:51:01.498Z,78.70
2019-05-23T20:53:32.818Z,79.20
2019-05-23T20:56:03.563Z,79.40
2019-05-23T20:58:34.198Z,79.70
2019-05-23T21:01:09.425Z,80.00
2019-05-23T21:03:40.534Z,80.00
2019-05-23T21:06:11.375Z,80.10
2019-05-23T21:08:42.238Z,80.40
2019-05-23T21:11:12.868Z,80.40
2019-05-23T21:13:44.686Z,80.70
2019-05-23T21:16:15.429Z,81.00
2019-05-23T21:18:49.718Z,81.10
2019-05-23T21:21:18.570Z,81.10
2019-05-23T21:23:56.395Z,81.10
2019-05-23T21:26:23.711Z,81.30
2019-05-23T21:28:54.588Z,81.10
2019-05-23T21:31:26.459Z,81.20
2019-05-23T21:33:58.424Z,80.80
2019-05-23T21:36:29.354Z,80.70
2019-05-23T21:39:00.100Z,80.70
2019-05-23T21:41:31.054Z,80.60
2019-05-23T21:44:02.784Z,80.70
2019-05-23T21:46:33.841Z,80.80
2019-05-23T21:49:04.748Z,80.30
2019-05-23T21:51:35.481Z,80.70
2019-05-23T21:54:07.252Z,80.60
2019-05-23T21:56:37.787Z,80.60
2019-05-23T21:59:08.412Z,80.70
2019-05-23T22:01:56.746Z,80.70
2019-05-23T22:04:40.236Z,81.00
2019-05-23T22:07:11.058Z,80.60
2019-05-23T22:09:42.106Z,80.60
2019-05-23T22:12:13.334Z,80.40
2019-05-23T22:14:46.464Z,80.00
2019-05-23T22:17:18.780Z,80.50
2019-05-23T22:19:49.506Z,80.10
2019-05-23T22:22:20.245Z,80.00
2019-05-23T22:24:51.921Z,79.90
2019-05-23T22:27:22.543Z,79.70
2019-05-23T22:29:53.360Z,79.80
2019-05-23T22:32:25.084Z,79.70
2019-05-23T22:34:58.391Z,79.70
2019-05-23T22:37:29.034Z,79.70
2019-05-23T22:39:59.751Z,80.00
2019-05-23T22:42:30.489Z,80.10
2019-05-23T22:45:03.293Z,80.10
2019-05-23T22:47:34.053Z,80.50
2019-05-23T22:50:06.089Z,80.50
2019-05-23T22:52:36.715Z,80.40
2019-05-23T22:55:08.585Z,80.70
2019-05-23T22:57:39.318Z,80.40
2019-05-23T23:00:11.539Z,80.50
2019-05-23T23:02:45.778Z,80.30
2019-05-23T23:05:15.523Z,80.10
2019-05-23T23:07:46.165Z,80.50
2019-05-23T23:10:17.697Z,80.60
2019-05-23T23:12:48.345Z,80.90
2019-05-23T23:15:20.256Z,81.00
2019-05-23T23:17:50.775Z,80.70
2019-05-23T23:20:21.433Z,80.70
2019-05-23T23:22:52.035Z,80.80
2019-05-23T23:25:23.630Z,81.10
2019-05-23T23:27:54.185Z,81.10
2019-05-23T23:30:27.485Z,81.10
2019-05-23T23:32:58.145Z,81.10
2019-05-23T23:35:29.919Z,81.20
2019-05-23T23:38:00.462Z,81.30
2019-05-23T23:40:31.276Z,81.20
2019-05-23T23:43:01.934Z,81.50
2019-05-23T23:45:51.363Z,81.50
2019-05-23T23:48:39.803Z,81.50
2019-05-23T23:51:28.568Z,81.70
2019-05-23T23:54:17.786Z,81.90
2019-05-23T23:57:06.058Z,81.90
2019-05-23T23:59:35.823Z,82.00
